Time;durP1;ratioP1;P1;durP2;ratioP2;P2;SDS_P1;SDS_P2;PMS_P1;PMS_P2;Temp;Humidity;BMP_temperature;BMP_pressure;BME280_temperature;BME280_humidity;BME280_pressure;Samples;Min_cycle;Max_cycle;Signal;HPM_P1;HPM_P2
2023/12/04 00:01:00;;;;;;;23.02;13.20;;;-1.80;99.90;;;;;;4971538;28;20398;-59
2023/12/04 00:03:25;;;;;;;24.48;14.02;;;-1.90;99.90;;;;;;4976520;28;20507;-59
2023/12/04 00:05:51;;;;;;;22.52;12.90;;;-1.90;99.90;;;;;;4959139;28;20828;-59
2023/12/04 00:08:17;;;;;;;25.13;12.98;;;-1.90;99.90;;;;;;4944051;28;20041;-58
2023/12/04 00:10:42;;;;;;;21.08;12.95;;;-1.90;99.90;;;;;;4954795;28;20029;-59
2023/12/04 00:13:08;;;;;;;23.23;13.93;;;-1.90;99.90;;;;;;5003556;28;20021;-58
2023/12/04 00:15:33;;;;;;;19.70;11.73;;;-1.90;99.90;;;;;;4968396;28;20536;-59
2023/12/04 00:17:59;;;;;;;18.38;12.55;;;-1.90;99.90;;;;;;4988150;28;20091;-57
2023/12/04 00:20:24;;;;;;;20.38;12.57;;;-1.90;99.90;;;;;;4947199;28;20083;-60
2023/12/04 00:22:50;;;;;;;22.63;12.30;;;-2.00;99.90;;;;;;4940860;28;20057;-58
2023/12/04 00:25:15;;;;;;;22.55;11.48;;;-2.00;99.90;;;;;;4946313;28;20132;-61
2023/12/04 00:27:41;;;;;;;17.58;12.48;;;-2.00;99.90;;;;;;4958889;28;20680;-58
2023/12/04 00:30:07;;;;;;;25.85;13.75;;;-2.00;99.90;;;;;;4983479;28;20570;-59
2023/12/04 00:32:32;;;;;;;20.08;12.73;;;-2.10;99.90;;;;;;4951216;28;20107;-59
2023/12/04 00:34:58;;;;;;;23.40;12.02;;;-2.10;99.90;;;;;;4927722;28;20045;-58
2023/12/04 00:37:23;;;;;;;20.92;11.60;;;-2.10;99.90;;;;;;4936664;28;20116;-57
2023/12/04 00:39:49;;;;;;;19.88;11.90;;;-2.10;99.90;;;;;;4950627;28;21519;-57
2023/12/04 00:42:15;;;;;;;21.30;12.00;;;-2.20;99.90;;;;;;4985607;28;20034;-56
2023/12/04 00:44:40;;;;;;;19.90;11.23;;;-2.10;99.90;;;;;;4933915;28;20038;-55
2023/12/04 00:47:06;;;;;;;20.42;12.13;;;-2.20;99.90;;;;;;4934390;28;20052;-59
2023/12/04 00:49:31;;;;;;;21.50;13.63;;;-2.20;99.90;;;;;;4927482;28;20036;-56
2023/12/04 00:51:57;;;;;;;19.38;11.32;;;-2.20;99.90;;;;;;4958319;28;20061;-54
2023/12/04 00:54:22;;;;;;;20.15;11.85;;;-2.20;99.90;;;;;;4976040;28;20033;-59
2023/12/04 00:56:48;;;;;;;20.02;11.35;;;-2.20;99.90;;;;;;4920454;28;20033;-57
2023/12/04 00:59:13;;;;;;;21.58;12.25;;;-2.20;99.90;;;;;;4930485;28;20498;-57
2023/12/04 01:01:39;;;;;;;22.23;12.35;;;-2.20;99.90;;;;;;4928201;28;20065;-58
2023/12/04 01:04:04;;;;;;;21.08;13.02;;;-2.30;99.90;;;;;;4947297;28;20037;-60
2023/12/04 01:06:30;;;;;;;19.88;10.68;;;-2.30;99.90;;;;;;4924186;28;20022;-60
2023/12/04 01:08:56;;;;;;;18.90;11.27;;;-2.30;99.90;;;;;;4954736;28;20026;-57
2023/12/04 01:11:23;;;;;;;22.85;12.55;;;-2.30;99.90;;;;;;4918131;28;22093;-55
2023/12/04 01:13:49;;;;;;;21.23;13.43;;;-2.30;99.90;;;;;;4916726;28;20608;-57
2023/12/04 01:16:15;;;;;;;19.38;11.30;;;-2.30;99.90;;;;;;4936708;28;20121;-60
2023/12/04 01:18:41;;;;;;;21.13;12.45;;;-2.40;99.90;;;;;;4924060;28;20042;-56
2023/12/04 01:21:11;;;;;;;20.50;12.52;;;-2.30;99.90;;;;;;4961596;28;20225;-58
2023/12/04 01:23:37;;;;;;;18.35;11.63;;;-2.40;99.90;;;;;;4945332;28;20060;-58
2023/12/04 01:26:06;;;;;;;19.10;11.05;;;-2.40;99.90;;;;;;4907342;28;20026;-59
2023/12/04 01:28:31;;;;;;;21.27;12.02;;;-2.40;99.90;;;;;;4934664;28;20709;-59
2023/12/04 01:30:57;;;;;;;17.92;11.25;;;-2.40;99.90;;;;;;4924529;28;20034;-59
2023/12/04 01:33:23;;;;;;;17.70;10.95;;;-2.50;99.90;;;;;;4953244;28;20281;-59
2023/12/04 01:35:48;;;;;;;18.10;10.63;;;-2.50;99.90;;;;;;4892200;28;20034;-59
2023/12/04 01:38:14;;;;;;;24.05;12.23;;;-2.50;99.90;;;;;;4912204;28;20045;-59
2023/12/04 01:40:39;;;;;;;17.88;10.93;;;-2.50;99.90;;;;;;4931627;28;20049;-58
2023/12/04 01:43:05;;;;;;;19.70;11.80;;;-2.60;99.90;;;;;;4959231;28;20038;-58
2023/12/04 01:45:31;;;;;;;19.55;11.57;;;-2.60;99.90;;;;;;4951154;28;20395;-60
2023/12/04 01:47:57;;;;;;;18.52;11.18;;;-2.60;99.90;;;;;;4948436;28;20748;-59
2023/12/04 01:50:24;;;;;;;18.88;10.73;;;-2.60;99.90;;;;;;4953225;28;20359;-57
2023/12/04 01:52:51;;;;;;;14.63;10.10;;;-2.60;99.90;;;;;;4954736;28;20084;-59
2023/12/04 01:55:18;;;;;;;21.67;12.05;;;-2.60;99.90;;;;;;4977983;28;20050;-61
2023/12/04 01:57:44;;;;;;;17.67;10.70;;;-2.70;99.90;;;;;;4977933;28;20125;-58
2023/12/04 02:00:11;;;;;;;19.83;10.77;;;-2.70;99.90;;;;;;4944203;28;20040;-55
2023/12/04 02:02:44;;;;;;;18.95;11.25;;;-2.70;99.90;;;;;;4952737;28;20030;-58
2023/12/04 02:05:11;;;;;;;15.23;9.43;;;-2.70;99.90;;;;;;4948163;28;20030;-55
2023/12/04 02:07:37;;;;;;;18.85;11.18;;;-2.70;99.90;;;;;;4952606;28;21617;-57
2023/12/04 02:10:03;;;;;;;19.15;10.63;;;-2.70;99.90;;;;;;4990893;28;20084;-56
2023/12/04 02:12:29;;;;;;;18.77;11.13;;;-2.70;99.90;;;;;;4986641;28;20165;-57
2023/12/04 02:14:55;;;;;;;18.65;11.35;;;-2.70;99.90;;;;;;4931780;28;20139;-56
2023/12/04 02:17:21;;;;;;;20.65;11.00;;;-2.70;99.90;;;;;;4944644;28;20038;-58
2023/12/04 02:19:47;;;;;;;19.20;12.13;;;-2.70;99.90;;;;;;4939019;28;20038;-58
2023/12/04 02:22:13;;;;;;;17.60;11.65;;;-2.70;99.90;;;;;;4992004;28;20034;-58
2023/12/04 02:24:38;;;;;;;21.23;10.73;;;-2.70;99.90;;;;;;4925505;28;20117;-58
2023/12/04 02:27:22;;;;;;;20.77;11.40;;;-2.80;99.90;;;;;;4991607;28;20022;-59
2023/12/04 02:29:53;;;;;;;19.08;11.27;;;-2.80;99.90;;;;;;4933658;28;20494;-58
2023/12/04 02:32:20;;;;;;;18.23;9.93;;;-2.80;99.90;;;;;;4941201;28;20026;-58
2023/12/04 02:34:48;;;;;;;20.33;11.57;;;-2.80;99.90;;;;;;4936258;28;20072;-55
2023/12/04 02:37:15;;;;;;;18.55;11.63;;;-2.80;99.90;;;;;;4996053;28;20026;-55
2023/12/04 02:39:42;;;;;;;18.58;11.20;;;-2.80;99.90;;;;;;4985651;28;20120;-56
2023/12/04 02:42:07;;;;;;;19.98;12.25;;;-2.80;99.90;;;;;;4925945;28;20040;-54
2023/12/04 02:44:33;;;;;;;23.23;10.80;;;-2.80;99.90;;;;;;4937526;28;20413;-57
2023/12/04 02:46:58;;;;;;;18.83;11.20;;;-2.80;99.90;;;;;;4942816;28;20037;-54
2023/12/04 02:49:24;;;;;;;17.17;11.02;;;-2.80;99.90;;;;;;4959122;28;20704;-58
2023/12/04 02:51:50;;;;;;;20.80;10.75;;;-2.80;99.90;;;;;;4991815;28;20034;-57
2023/12/04 02:54:15;;;;;;;18.50;11.60;;;-2.80;99.90;;;;;;4936243;28;20085;-58
2023/12/04 02:56:41;;;;;;;19.52;10.50;;;-2.90;99.90;;;;;;4942539;28;20028;-56
2023/12/04 02:59:06;;;;;;;20.60;11.75;;;-2.90;99.90;;;;;;4937743;28;20033;-55
2023/12/04 03:01:32;;;;;;;18.23;11.20;;;-2.90;99.90;;;;;;4936543;28;20065;-60
2023/12/04 03:03:58;;;;;;;20.23;11.70;;;-2.80;99.90;;;;;;5002528;28;20053;-58
2023/12/04 03:06:23;;;;;;;16.10;10.10;;;-2.90;99.90;;;;;;4986276;28;20025;-57
2023/12/04 03:08:49;;;;;;;23.27;10.50;;;-2.80;99.90;;;;;;4947039;28;20053;-55
2023/12/04 03:11:14;;;;;;;19.17;11.40;;;-2.90;99.90;;;;;;4973837;28;20023;-57
2023/12/04 03:13:40;;;;;;;23.95;12.38;;;-2.90;99.90;;;;;;4999572;28;20057;-57
2023/12/04 03:16:06;;;;;;;21.05;11.38;;;-2.90;99.90;;;;;;5001449;28;20037;-56
2023/12/04 03:18:31;;;;;;;22.13;11.15;;;-2.90;99.90;;;;;;4988550;28;20045;-54
2023/12/04 03:20:57;;;;;;;18.63;10.57;;;-2.80;99.90;;;;;;4964326;28;20025;-53
2023/12/04 03:23:22;;;;;;;19.02;11.18;;;-2.80;99.90;;;;;;4994883;28;20053;-54
2023/12/04 03:25:48;;;;;;;21.20;10.55;;;-2.80;99.90;;;;;;5000956;28;20520;-54
2023/12/04 03:28:15;;;;;;;18.20;10.60;;;-2.80;99.90;;;;;;4994571;28;20029;-56
2023/12/04 03:30:43;;;;;;;23.48;11.75;;;-2.80;99.90;;;;;;4991474;28;20018;-56
2023/12/04 03:33:09;;;;;;;22.35;11.85;;;-2.80;99.90;;;;;;4990352;28;20023;-58
2023/12/04 03:35:34;;;;;;;24.90;11.85;;;-2.80;99.90;;;;;;4985648;28;21780;-56
2023/12/04 03:38:00;;;;;;;16.52;10.82;;;-2.80;99.90;;;;;;5006102;28;20111;-56
2023/12/04 03:40:25;;;;;;;16.80;10.98;;;-2.70;99.90;;;;;;4985474;28;20108;-54
2023/12/04 03:42:51;;;;;;;24.55;11.07;;;-2.80;99.90;;;;;;4975598;28;20965;-57
2023/12/04 03:45:16;;;;;;;19.63;11.15;;;-2.80;99.90;;;;;;4988582;28;20034;-56
2023/12/04 03:47:42;;;;;;;25.90;13.40;;;-2.80;99.90;;;;;;4946416;28;20033;-55
2023/12/04 03:50:08;;;;;;;19.13;11.35;;;-2.80;99.90;;;;;;5009175;28;20421;-54
2023/12/04 03:52:33;;;;;;;19.23;10.93;;;-2.80;99.90;;;;;;4974897;28;20558;-56
2023/12/04 03:54:59;;;;;;;20.75;10.77;;;-2.80;99.90;;;;;;4978830;28;20041;-56
2023/12/04 03:57:24;;;;;;;19.92;11.27;;;-2.80;99.90;;;;;;4986642;28;20045;-58
2023/12/04 03:59:50;;;;;;;18.02;9.48;;;-2.70;99.90;;;;;;5010165;28;20029;-57
2023/12/04 04:02:15;;;;;;;16.17;9.60;;;-2.70;99.90;;;;;;4994375;28;20402;-60
2023/12/04 04:04:41;;;;;;;17.15;9.93;;;-2.70;99.90;;;;;;4983461;28;20406;-58
2023/12/04 04:07:06;;;;;;;17.73;10.50;;;-2.70;99.90;;;;;;4980010;28;20414;-58
2023/12/04 04:09:32;;;;;;;19.00;10.05;;;-2.70;99.90;;;;;;4978976;28;20087;-56
2023/12/04 04:11:58;;;;;;;14.93;9.15;;;-2.80;99.90;;;;;;4977517;28;20043;-53
2023/12/04 04:16:52;;;;;;;17.83;10.02;;;-2.80;99.90;;;;;;4965374;28;20618;-57
2023/12/04 04:19:17;;;;;;;15.80;8.60;;;-2.70;99.90;;;;;;4986293;28;20025;-58
2023/12/04 04:21:43;;;;;;;17.85;10.70;;;-2.80;99.90;;;;;;4973714;28;20032;-57
2023/12/04 04:24:08;;;;;;;17.33;10.82;;;-2.70;99.90;;;;;;4934984;28;20405;-58
2023/12/04 04:26:34;;;;;;;16.75;10.27;;;-2.70;99.90;;;;;;4932241;28;20026;-56
2023/12/04 04:28:59;;;;;;;16.92;9.38;;;-2.70;99.90;;;;;;4948849;28;20430;-57
2023/12/04 04:31:25;;;;;;;17.05;9.73;;;-2.70;99.90;;;;;;4984449;28;20032;-62
2023/12/04 04:33:50;;;;;;;16.00;8.95;;;-2.80;99.90;;;;;;4942658;28;20021;-57
2023/12/04 04:36:16;;;;;;;15.65;9.82;;;-2.80;99.90;;;;;;4922431;28;20084;-56
2023/12/04 04:38:41;;;;;;;17.80;9.85;;;-2.80;99.90;;;;;;4944000;28;20053;-56
2023/12/04 04:41:12;;;;;;;17.40;9.75;;;-2.80;99.90;;;;;;4955706;28;20033;-57
2023/12/04 04:43:38;;;;;;;17.23;8.88;;;-2.80;99.90;;;;;;4924751;28;20124;-62
2023/12/04 04:46:04;;;;;;;18.02;8.88;;;-2.70;99.90;;;;;;4988463;28;20155;-56
2023/12/04 04:48:29;;;;;;;17.02;8.82;;;-2.70;99.90;;;;;;4928269;28;20018;-58
2023/12/04 04:50:55;;;;;;;14.50;9.60;;;-2.70;99.90;;;;;;4890377;28;20033;-56
2023/12/04 04:53:20;;;;;;;17.70;9.68;;;-2.70;99.90;;;;;;4995808;28;20025;-56
2023/12/04 04:55:46;;;;;;;19.50;9.93;;;-2.70;99.90;;;;;;5016390;28;20025;-57
2023/12/04 04:58:11;;;;;;;16.80;9.80;;;-2.60;99.90;;;;;;4977124;28;20041;-55
2023/12/04 05:00:37;;;;;;;15.75;9.40;;;-2.60;99.90;;;;;;4962044;28;20021;-58
2023/12/04 05:03:03;;;;;;;17.45;9.52;;;-2.60;99.90;;;;;;4974515;28;20613;-58
2023/12/04 05:05:28;;;;;;;16.30;9.02;;;-2.60;99.90;;;;;;4981855;28;20030;-58
2023/12/04 05:07:54;;;;;;;15.90;9.55;;;-2.60;99.90;;;;;;5003044;28;20056;-58
2023/12/04 05:10:19;;;;;;;15.10;9.40;;;-2.60;99.90;;;;;;4977416;28;20799;-59
2023/12/04 05:12:45;;;;;;;16.42;9.77;;;-2.60;99.90;;;;;;4961795;28;20650;-57
2023/12/04 05:15:10;;;;;;;16.70;9.43;;;-2.60;99.90;;;;;;4974487;28;20057;-57
2023/12/04 05:17:36;;;;;;;16.75;9.48;;;-2.60;99.90;;;;;;4980189;28;21647;-60
2023/12/04 05:20:01;;;;;;;15.13;9.15;;;-2.60;99.90;;;;;;5007609;28;20036;-58
2023/12/04 05:22:27;;;;;;;17.80;9.95;;;-2.50;99.90;;;;;;4951140;28;20099;-58
2023/12/04 05:24:52;;;;;;;16.63;10.35;;;-2.50;99.90;;;;;;5019123;28;20462;-59
2023/12/04 05:27:18;;;;;;;16.58;9.85;;;-2.50;99.90;;;;;;4973974;28;20025;-57
2023/12/04 05:29:43;;;;;;;16.92;9.52;;;-2.50;99.90;;;;;;4981380;28;21564;-58
2023/12/04 05:32:09;;;;;;;18.88;9.48;;;-2.40;99.90;;;;;;5018662;28;20053;-58
2023/12/04 05:34:34;;;;;;;17.25;9.80;;;-2.40;99.90;;;;;;4969164;28;20041;-56
2023/12/04 05:37:00;;;;;;;13.70;8.80;;;-2.40;99.90;;;;;;4970440;28;20030;-60
2023/12/04 05:39:26;;;;;;;17.40;9.77;;;-2.40;99.90;;;;;;4975945;28;20520;-56
2023/12/04 05:41:51;;;;;;;18.58;8.43;;;-2.30;99.90;;;;;;4968602;28;20029;-58
2023/12/04 05:44:17;;;;;;;17.42;9.93;;;-2.30;99.90;;;;;;5013636;28;20037;-62
2023/12/04 05:46:42;;;;;;;15.85;9.90;;;-2.30;99.90;;;;;;4974761;28;20053;-55
2023/12/04 05:49:08;;;;;;;16.98;9.65;;;-2.30;99.90;;;;;;4930387;28;20017;-54
2023/12/04 05:51:33;;;;;;;17.23;8.95;;;-2.30;99.90;;;;;;4948768;28;20029;-58
2023/12/04 05:53:59;;;;;;;16.92;10.02;;;-2.30;99.90;;;;;;4954592;28;20017;-59
2023/12/04 05:56:24;;;;;;;16.38;9.68;;;-2.30;99.90;;;;;;4985892;28;20461;-63
2023/12/04 05:58:50;;;;;;;15.38;9.70;;;-2.30;99.90;;;;;;5000635;28;20075;-58
2023/12/04 06:01:15;;;;;;;15.52;9.30;;;-2.30;99.90;;;;;;4972046;28;20530;-61
2023/12/04 06:03:41;;;;;;;16.15;9.82;;;-2.30;99.90;;;;;;4961556;28;20022;-59
2023/12/04 06:06:07;;;;;;;14.85;9.25;;;-2.20;99.90;;;;;;4990829;28;20497;-62
2023/12/04 06:08:32;;;;;;;15.40;9.02;;;-2.20;99.90;;;;;;4925076;28;20034;-60
2023/12/04 06:10:58;;;;;;;23.15;10.93;;;-2.20;99.90;;;;;;5019462;28;20032;-56
2023/12/04 06:13:23;;;;;;;15.65;9.30;;;-2.20;99.90;;;;;;4963554;28;20072;-60
2023/12/04 06:15:49;;;;;;;17.02;9.77;;;-2.20;99.90;;;;;;4949969;28;20041;-57
2023/12/04 06:18:15;;;;;;;16.63;8.90;;;-2.20;99.90;;;;;;4974391;28;20029;-57
2023/12/04 06:20:40;;;;;;;15.68;9.10;;;-2.20;99.90;;;;;;4963302;28;20673;-57
2023/12/04 06:23:06;;;;;;;14.80;9.48;;;-2.20;99.90;;;;;;5021063;28;20036;-58
2023/12/04 06:25:32;;;;;;;18.85;9.23;;;-2.20;99.90;;;;;;4954400;28;20045;-59
2023/12/04 06:27:58;;;;;;;18.55;10.00;;;-2.20;99.90;;;;;;4964535;28;20032;-57
2023/12/04 06:30:23;;;;;;;14.63;9.30;;;-2.30;99.90;;;;;;4974458;28;20054;-60
2023/12/04 06:32:49;;;;;;;14.75;9.55;;;-2.20;99.90;;;;;;4989232;28;21598;-57
2023/12/04 06:35:15;;;;;;;18.73;10.32;;;-2.20;99.90;;;;;;5006110;28;20042;-56
2023/12/04 06:37:42;;;;;;;17.83;9.77;;;-2.20;99.90;;;;;;4982410;28;20111;-57
2023/12/04 06:40:10;;;;;;;19.67;10.98;;;-2.20;99.90;;;;;;4970942;28;20038;-59
2023/12/04 06:42:36;;;;;;;16.05;9.95;;;-2.20;99.90;;;;;;4974017;28;21501;-56
2023/12/04 06:45:02;;;;;;;19.40;10.68;;;-2.20;99.90;;;;;;4984539;28;20597;-58
2023/12/04 06:47:34;;;;;;;19.35;10.07;;;-2.20;99.90;;;;;;4993916;28;20040;-62
2023/12/04 06:49:59;;;;;;;19.08;9.80;;;-2.30;99.90;;;;;;5011145;28;20022;-60
2023/12/04 06:52:25;;;;;;;21.83;10.45;;;-2.30;99.90;;;;;;4968041;28;20029;-57
2023/12/04 06:54:50;;;;;;;20.30;11.00;;;-2.30;99.90;;;;;;4962019;28;20030;-58
2023/12/04 06:57:16;;;;;;;17.15;10.35;;;-2.30;99.90;;;;;;4980354;28;20107;-62
2023/12/04 06:59:42;;;;;;;20.08;11.45;;;-2.30;99.90;;;;;;4966230;28;20021;-60
2023/12/04 07:02:08;;;;;;;17.15;9.70;;;-2.30;99.90;;;;;;4994788;28;20033;-58
2023/12/04 07:04:33;;;;;;;19.60;10.65;;;-2.30;99.90;;;;;;4971890;28;20045;-60
2023/12/04 07:07:04;;;;;;;19.05;10.48;;;-2.30;99.90;;;;;;4993067;28;20029;-58
2023/12/04 07:09:31;;;;;;;16.95;10.20;;;-2.30;99.90;;;;;;4953340;28;20022;-59
2023/12/04 07:11:56;;;;;;;19.58;11.50;;;-2.30;99.90;;;;;;4990289;28;20083;-57
2023/12/04 07:14:22;;;;;;;19.52;11.45;;;-2.40;99.90;;;;;;5004703;28;20544;-58
2023/12/04 07:16:47;;;;;;;18.55;10.20;;;-2.40;99.90;;;;;;4977739;28;20025;-58
2023/12/04 07:19:14;;;;;;;21.38;10.32;;;-2.30;99.90;;;;;;4982461;28;20021;-55
2023/12/04 07:21:40;;;;;;;21.08;11.45;;;-2.30;99.90;;;;;;4974461;28;21686;-59
2023/12/04 07:24:06;;;;;;;21.25;10.80;;;-2.30;99.90;;;;;;4971811;28;20025;-59
2023/12/04 07:26:33;;;;;;;23.77;12.77;;;-2.30;99.90;;;;;;4956871;28;20026;-62
2023/12/04 07:28:59;;;;;;;19.33;10.52;;;-2.30;99.90;;;;;;4997984;28;20025;-57
2023/12/04 07:31:26;;;;;;;21.35;11.55;;;-2.30;99.90;;;;;;4946472;28;20508;-56
2023/12/04 07:33:53;;;;;;;20.33;12.20;;;-2.30;99.90;;;;;;4964521;28;20018;-56
2023/12/04 07:36:18;;;;;;;21.27;11.30;;;-2.30;99.90;;;;;;5008257;28;20029;-61
2023/12/04 07:38:44;;;;;;;19.20;10.98;;;-2.30;99.90;;;;;;4997290;28;20033;-59
2023/12/04 07:41:09;;;;;;;21.50;11.20;;;-2.30;99.90;;;;;;4987494;28;20028;-56
2023/12/04 07:43:35;;;;;;;18.08;10.80;;;-2.30;99.90;;;;;;4940940;28;20043;-55
2023/12/04 07:46:00;;;;;;;21.00;12.23;;;-2.30;99.90;;;;;;4943848;28;20047;-58
2023/12/04 07:48:26;;;;;;;18.95;11.18;;;-2.30;99.90;;;;;;4935210;28;20105;-56
2023/12/04 07:50:51;;;;;;;22.35;11.93;;;-2.30;99.90;;;;;;4963102;28;21570;-58
2023/12/04 07:53:17;;;;;;;23.75;13.07;;;-2.30;99.90;;;;;;4986930;28;20025;-56
2023/12/04 07:55:43;;;;;;;21.25;12.18;;;-2.20;99.90;;;;;;4934550;28;20094;-57
2023/12/04 07:58:09;;;;;;;20.58;12.38;;;-2.20;99.90;;;;;;4923953;28;20037;-56
2023/12/04 08:00:35;;;;;;;21.88;12.02;;;-2.20;99.90;;;;;;4930612;28;20025;-58
2023/12/04 08:03:00;;;;;;;21.60;12.15;;;-2.20;99.90;;;;;;4952135;28;20029;-55
2023/12/04 08:05:27;;;;;;;24.20;13.00;;;-2.20;99.90;;;;;;4977025;28;20037;-62
2023/12/04 08:07:52;;;;;;;18.13;10.77;;;-2.20;99.90;;;;;;4944195;28;20021;-56
2023/12/04 08:10:18;;;;;;;20.20;11.82;;;-2.20;99.90;;;;;;4986089;28;20022;-55
2023/12/04 08:12:47;;;;;;;24.60;11.95;;;-2.20;99.90;;;;;;4992345;28;21726;-57
2023/12/04 08:15:12;;;;;;;21.70;11.55;;;-2.10;99.90;;;;;;5017436;28;20028;-59
2023/12/04 08:17:38;;;;;;;22.52;11.60;;;-2.10;99.90;;;;;;4952304;28;20025;-56
2023/12/04 08:20:04;;;;;;;21.63;11.27;;;-2.10;99.90;;;;;;4952197;28;20033;-56
2023/12/04 08:22:29;;;;;;;20.80;11.15;;;-2.10;99.90;;;;;;4984473;28;20060;-57
2023/12/04 08:24:55;;;;;;;19.98;11.98;;;-2.10;99.90;;;;;;4973015;28;20494;-59
2023/12/04 08:27:20;;;;;;;21.17;11.60;;;-2.00;99.90;;;;;;4991157;28;20025;-61
2023/12/04 08:29:46;;;;;;;17.25;10.38;;;-2.00;99.90;;;;;;4998967;28;20022;-60
2023/12/04 08:32:11;;;;;;;13.95;9.32;;;-2.00;99.90;;;;;;4965231;28;20017;-55
2023/12/04 08:34:37;;;;;;;22.83;10.82;;;-1.90;99.90;;;;;;4985893;28;20037;-60
2023/12/04 08:37:03;;;;;;;21.10;11.63;;;-1.90;99.90;;;;;;4989135;28;20064;-59
2023/12/04 08:39:28;;;;;;;18.55;11.05;;;-2.00;99.90;;;;;;4979144;28;20025;-55
2023/12/04 08:41:54;;;;;;;17.73;10.70;;;-1.90;99.90;;;;;;5017064;28;20520;-58
2023/12/04 08:44:19;;;;;;;19.30;10.68;;;-1.90;99.90;;;;;;4954860;28;20125;-59
2023/12/04 08:46:45;;;;;;;22.25;12.20;;;-1.90;99.90;;;;;;4978569;28;20043;-59
2023/12/04 08:49:10;;;;;;;19.20;11.27;;;-1.80;99.90;;;;;;4973658;28;20086;-54
2023/12/04 08:51:36;;;;;;;17.88;11.13;;;-1.90;99.90;;;;;;4981226;28;21336;-60
2023/12/04 08:54:02;;;;;;;21.77;11.93;;;-1.80;99.90;;;;;;4997230;28;20026;-59
2023/12/04 08:56:29;;;;;;;21.00;11.52;;;-1.80;99.90;;;;;;4966512;28;20021;-57
2023/12/04 08:58:54;;;;;;;20.67;11.38;;;-1.80;99.90;;;;;;4975091;28;20022;-58
2023/12/04 09:01:20;;;;;;;22.17;11.82;;;-1.70;99.90;;;;;;4983634;28;20123;-57
2023/12/04 09:03:46;;;;;;;19.52;11.35;;;-1.70;99.90;;;;;;4970641;28;20029;-56
2023/12/04 09:06:11;;;;;;;18.40;11.38;;;-1.70;99.90;;;;;;5008834;28;20064;-53
2023/12/04 09:08:37;;;;;;;20.10;10.70;;;-1.70;99.90;;;;;;4929230;28;20107;-57
2023/12/04 09:11:03;;;;;;;20.92;11.68;;;-1.60;99.90;;;;;;4963083;28;20425;-59
2023/12/04 09:13:30;;;;;;;18.95;10.60;;;-1.60;99.90;;;;;;4959438;28;20017;-59
2023/12/04 09:15:56;;;;;;;21.40;11.48;;;-1.60;99.90;;;;;;4949380;28;20032;-57
2023/12/04 09:18:21;;;;;;;19.55;11.75;;;-1.60;99.90;;;;;;4977746;28;20037;-62
2023/12/04 09:20:47;;;;;;;22.98;12.23;;;-1.60;99.90;;;;;;4985413;28;20044;-56
2023/12/04 09:23:13;;;;;;;21.75;11.05;;;-1.60;99.90;;;;;;4926219;28;20433;-55
2023/12/04 09:25:38;;;;;;;19.20;11.88;;;-1.60;99.90;;;;;;4957939;28;20036;-58
2023/12/04 09:28:04;;;;;;;20.27;10.82;;;-1.60;99.90;;;;;;4959748;28;20028;-57
2023/12/04 09:30:29;;;;;;;21.35;12.23;;;-1.60;99.90;;;;;;5029890;28;20469;-56
2023/12/04 09:32:55;;;;;;;21.17;11.10;;;-1.50;99.90;;;;;;5017176;28;20033;-55
2023/12/04 09:35:20;;;;;;;20.45;12.05;;;-1.50;99.90;;;;;;5022466;28;20121;-59
2023/12/04 09:37:48;;;;;;;17.90;11.38;;;-1.50;99.90;;;;;;4949780;28;20055;-62
2023/12/04 09:40:14;;;;;;;20.98;11.80;;;-1.50;99.90;;;;;;4951910;28;20022;-54
2023/12/04 09:42:40;;;;;;;18.52;11.60;;;-1.40;99.90;;;;;;4945155;28;21476;-55
2023/12/04 09:45:08;;;;;;;20.23;11.32;;;-1.40;99.90;;;;;;5019676;28;20060;-55
2023/12/04 09:47:34;;;;;;;18.20;11.55;;;-1.40;99.90;;;;;;5010345;28;20041;-55
2023/12/04 09:50:00;;;;;;;17.88;11.52;;;-1.40;99.90;;;;;;4981061;28;20026;-54
2023/12/04 09:52:27;;;;;;;19.92;11.25;;;-1.30;99.90;;;;;;4976561;28;20050;-56
2023/12/04 09:54:53;;;;;;;19.23;12.63;;;-1.30;99.90;;;;;;4981594;28;21322;-59
2023/12/04 09:57:19;;;;;;;18.88;11.85;;;-1.30;99.90;;;;;;5005747;28;20033;-57
2023/12/04 09:59:45;;;;;;;18.55;11.55;;;-1.30;99.90;;;;;;4943316;28;20127;-54
2023/12/04 10:02:11;;;;;;;19.67;11.88;;;-1.30;99.90;;;;;;4961735;28;20028;-53
2023/12/04 10:04:37;;;;;;;20.05;11.40;;;-1.30;99.90;;;;;;4960065;28;21205;-57
2023/12/04 10:07:04;;;;;;;16.80;11.20;;;-1.20;99.90;;;;;;4973165;28;20030;-56
2023/12/04 10:09:30;;;;;;;20.65;11.40;;;-1.20;99.90;;;;;;4988145;28;20029;-62
2023/12/04 10:11:56;;;;;;;23.65;12.93;;;-1.10;99.90;;;;;;4995467;28;20057;-59
2023/12/04 10:14:22;;;;;;;18.40;11.55;;;-1.10;99.90;;;;;;4971079;28;21647;-55
2023/12/04 10:16:49;;;;;;;20.42;11.20;;;-1.10;99.90;;;;;;4991011;22;20521;-53
2023/12/04 10:19:23;;;;;;;17.83;11.10;;;-1.10;99.90;;;;;;5007833;28;20071;-54
2023/12/04 10:21:50;;;;;;;18.13;11.45;;;-1.00;99.90;;;;;;4978694;28;21559;-56
2023/12/04 10:24:35;;;;;;;20.85;11.65;;;-1.00;99.90;;;;;;5004302;28;20045;-54
2023/12/04 10:27:02;;;;;;;19.27;10.88;;;-0.90;99.90;;;;;;5015643;28;20044;-56
2023/12/04 10:29:30;;;;;;;21.30;12.32;;;-0.80;99.90;;;;;;4950813;28;20636;-56
2023/12/04 10:31:58;;;;;;;21.58;12.13;;;-0.80;99.90;;;;;;4997573;28;20026;-55
2023/12/04 10:34:26;;;;;;;17.85;11.40;;;-0.70;99.90;;;;;;4945132;28;20041;-52
2023/12/04 10:36:52;;;;;;;15.57;10.70;;;-0.70;99.90;;;;;;4993397;28;20027;-56
2023/12/04 10:39:17;;;;;;;19.02;10.77;;;-0.70;99.90;;;;;;4996875;28;20435;-56
2023/12/04 10:41:44;;;;;;;21.63;11.82;;;-0.70;99.90;;;;;;4927904;28;20026;-57
2023/12/04 10:44:09;;;;;;;16.02;10.70;;;-0.70;99.90;;;;;;4921593;28;20052;-56
2023/12/04 10:46:37;;;;;;;18.80;10.85;;;-0.60;99.90;;;;;;4944097;28;20030;-59
2023/12/04 10:49:04;;;;;;;16.65;10.40;;;-0.60;99.90;;;;;;4949061;28;20017;-56
2023/12/04 10:51:30;;;;;;;16.95;10.32;;;-0.50;99.90;;;;;;4964685;28;20034;-58
2023/12/04 10:53:56;;;;;;;14.68;9.95;;;-0.50;99.90;;;;;;4967564;28;20118;-56
2023/12/04 10:56:34;;;;;;;19.05;10.38;;;-0.50;99.90;;;;;;4968907;28;20112;-57
2023/12/04 10:59:01;;;;;;;17.65;10.13;;;-0.50;99.90;;;;;;4981347;28;20116;-56
2023/12/04 11:01:28;;;;;;;19.25;9.98;;;-0.50;99.90;;;;;;4983436;28;20036;-58
2023/12/04 11:03:58;;;;;;;19.30;10.35;;;-0.50;99.90;;;;;;5003648;28;20025;-56
2023/12/04 11:06:25;;;;;;;18.27;10.35;;;-0.50;99.90;;;;;;4964110;28;20509;-55
2023/12/04 11:08:57;;;;;;;14.60;10.82;;;-0.50;99.90;;;;;;4964195;28;20021;-54
2023/12/04 11:11:27;;;;;;;21.35;11.82;;;-0.40;99.90;;;;;;4970374;28;21706;-57
2023/12/04 11:13:56;;;;;;;21.77;11.43;;;-0.40;99.90;;;;;;4927769;28;20445;-56
2023/12/04 11:16:29;;;;;;;16.88;11.07;;;-0.40;99.90;;;;;;4970084;28;20033;-60
2023/12/04 11:19:01;;;;;;;16.02;10.45;;;-0.40;99.90;;;;;;4956495;28;22399;-57
2023/12/04 11:21:29;;;;;;;21.15;11.80;;;-0.40;99.90;;;;;;4968910;28;20068;-59
2023/12/04 11:23:58;;;;;;;22.55;11.40;;;-0.40;99.90;;;;;;4936634;28;20048;-57
2023/12/04 11:26:24;;;;;;;20.80;12.10;;;-0.40;99.90;;;;;;4920837;28;20038;-56
2023/12/04 11:28:52;;;;;;;27.55;12.95;;;-0.50;99.90;;;;;;4919999;28;20501;-57
2023/12/04 11:31:18;;;;;;;19.48;11.52;;;-0.40;99.90;;;;;;5008897;28;20026;-59
2023/12/04 11:33:44;;;;;;;20.75;11.70;;;-0.50;99.90;;;;;;4988917;28;20029;-59
2023/12/04 11:36:12;;;;;;;18.98;11.90;;;-0.50;99.90;;;;;;4982368;28;20163;-55
2023/12/04 11:38:42;;;;;;;18.83;12.40;;;-0.50;99.90;;;;;;4977090;28;20045;-57
2023/12/04 11:41:19;;;;;;;21.33;11.98;;;-0.50;99.90;;;;;;4975629;28;20509;-58
2023/12/04 11:43:49;;;;;;;17.83;12.07;;;-0.50;99.90;;;;;;5015884;28;20033;-59
2023/12/04 11:46:23;;;;;;;20.08;12.10;;;-0.50;99.90;;;;;;5014844;28;20032;-57
2023/12/04 11:48:50;;;;;;;24.25;12.45;;;-0.40;99.90;;;;;;4994592;28;20036;-57
2023/12/04 11:51:38;;;;;;;22.67;12.90;;;-0.40;99.90;;;;;;4960963;28;20030;-56
2023/12/04 11:54:07;;;;;;;24.60;11.95;;;-0.40;99.90;;;;;;4940096;28;20049;-57
2023/12/04 11:56:33;;;;;;;20.17;11.20;;;-0.40;99.90;;;;;;4974706;28;20148;-57
2023/12/04 11:59:06;;;;;;;19.90;10.88;;;-0.40;99.90;;;;;;4959840;28;20550;-58
2023/12/04 12:01:37;;;;;;;18.95;10.82;;;-0.40;99.90;;;;;;4957793;28;20041;-58
2023/12/04 12:04:07;;;;;;;17.20;10.38;;;-0.30;99.90;;;;;;5011816;28;20122;-57
2023/12/04 12:06:32;;;;;;;16.13;10.18;;;-0.30;99.90;;;;;;4953608;28;20038;-58
2023/12/04 12:08:58;;;;;;;16.00;10.68;;;-0.30;99.90;;;;;;4965281;28;20033;-58
2023/12/04 12:11:25;;;;;;;19.55;12.25;;;-0.30;99.90;;;;;;4960263;28;21715;-58
2023/12/04 12:13:53;;;;;;;20.73;11.45;;;-0.30;99.90;;;;;;5015884;28;20048;-55
2023/12/04 12:16:18;;;;;;;16.60;10.95;;;-0.30;99.90;;;;;;4991485;28;20029;-60
2023/12/04 12:18:44;;;;;;;18.17;10.23;;;-0.40;99.90;;;;;;4970393;28;20053;-58
2023/12/04 12:21:10;;;;;;;22.08;12.13;;;-0.40;99.90;;;;;;4915664;28;20040;-57
2023/12/04 12:23:36;;;;;;;18.23;11.32;;;-0.40;99.90;;;;;;4924535;28;20362;-58
2023/12/04 12:26:02;;;;;;;15.77;10.50;;;-0.50;99.90;;;;;;4992915;28;20040;-58